Time;durP1;ratioP1;P1;durP2;ratioP2;P2;SDS_P1;SDS_P2;PMS_P1;PMS_P2;Temp;Humidity;BMP_temperature;BMP_pressure;BME280_temperature;BME280_humidity;BME280_pressure;Samples;Min_cycle;Max_cycle;Signal;HPM_P1;HPM_P2
2022/01/30 00:02:10;;;;;;;22.60;4.40;;;6.60;99.90;;;;;;4935411;29;20266;-95
2022/01/30 00:04:36;;;;;;;18.73;4.47;;;6.40;99.90;;;;;;4934971;29;20648;-94
2022/01/30 00:07:02;;;;;;;25.17;4.47;;;6.30;99.90;;;;;;4926891;29;20193;-94
2022/01/30 00:09:28;;;;;;;25.33;4.47;;;6.20;99.90;;;;;;4954446;29;20182;-94
2022/01/30 00:11:58;;;;;;;23.53;4.37;;;6.10;99.90;;;;;;4938823;29;20221;-95
2022/01/30 00:14:26;;;;;;;23.63;4.30;;;6.10;99.90;;;;;;4935295;29;20542;-94
2022/01/30 00:17:04;;;;;;;25.90;5.30;;;6.00;99.90;;;;;;4935220;29;20182;-96
2022/01/30 00:25:00;;;;;;;19.07;4.10;;;5.80;99.90;;;;;;4928395;29;20217;-94
2022/01/30 00:27:30;;;;;;;20.60;4.57;;;5.80;99.90;;;;;;4935058;29;20614;-95
2022/01/30 00:29:56;;;;;;;21.23;3.83;;;5.80;99.90;;;;;;4942559;29;20196;-96
2022/01/30 00:32:27;;;;;;;23.63;3.60;;;5.90;99.90;;;;;;4943310;29;20202;-95
2022/01/30 00:34:52;;;;;;;20.33;4.33;;;5.90;99.90;;;;;;4942560;29;20286;-95
2022/01/30 00:37:18;;;;;;;18.90;3.93;;;6.00;99.90;;;;;;4918557;29;20190;-94
2022/01/30 00:39:44;;;;;;;16.80;3.47;;;6.30;99.90;;;;;;4918791;29;20622;-93
2022/01/30 00:42:11;;;;;;;17.60;3.73;;;6.40;99.90;;;;;;4919203;29;20229;-94
2022/01/30 00:44:37;;;;;;;19.30;3.47;;;6.30;99.90;;;;;;4918254;29;20234;-94
2022/01/30 00:47:04;;;;;;;22.07;4.13;;;6.20;99.90;;;;;;4945526;29;20186;-94
2022/01/30 00:49:30;;;;;;;18.33;4.30;;;6.20;99.90;;;;;;4934060;29;20626;-94
2022/01/30 00:51:55;;;;;;;23.27;4.40;;;6.30;99.90;;;;;;4934466;29;20294;-94
2022/01/30 00:54:21;;;;;;;16.30;3.80;;;6.30;99.90;;;;;;4934261;29;20257;-95
2022/01/30 00:56:47;;;;;;;19.67;3.90;;;6.30;99.90;;;;;;4934922;29;20193;-95
2022/01/30 00:59:12;;;;;;;23.57;3.83;;;6.20;99.90;;;;;;4953610;29;20178;-94
2022/01/30 01:01:38;;;;;;;22.50;3.43;;;6.20;99.90;;;;;;4954700;28;20249;-96
2022/01/30 01:04:04;;;;;;;26.20;3.93;;;6.20;99.90;;;;;;4943972;29;20187;-96
2022/01/30 01:06:30;;;;;;;23.40;4.43;;;6.10;99.90;;;;;;4918837;29;20598;-96
2022/01/30 01:09:00;;;;;;;20.53;4.17;;;6.10;99.90;;;;;;4948176;29;20233;-96
2022/01/30 01:20:48;;;;;;;25.70;4.20;;;6.00;99.90;;;;;;4939484;29;20182;-96
2022/01/30 01:25:07;;;;;;;20.80;3.87;;;5.60;99.90;;;;;;4939510;29;20173;-95
2022/01/30 01:27:34;;;;;;;26.63;4.27;;;5.40;99.90;;;;;;4946660;29;20198;-95
2022/01/30 01:30:00;;;;;;;18.03;3.80;;;5.50;99.90;;;;;;4935100;29;20183;-95
2022/01/30 01:32:30;;;;;;;25.60;4.97;;;5.50;99.90;;;;;;4935098;29;20190;-96
2022/01/30 01:34:56;;;;;;;25.00;4.20;;;5.60;99.90;;;;;;4934709;29;20217;-94
2022/01/30 01:37:22;;;;;;;20.47;4.07;;;5.60;99.90;;;;;;4934948;29;20179;-95
2022/01/30 01:39:49;;;;;;;20.13;4.17;;;5.70;99.90;;;;;;4933925;29;20222;-96
2022/01/30 01:42:17;;;;;;;21.73;5.00;;;5.70;99.90;;;;;;4934385;29;20329;-95
2022/01/30 01:44:53;;;;;;;23.20;4.80;;;5.80;99.90;;;;;;4934318;29;20241;-95
2022/01/30 01:47:21;;;;;;;27.13;3.83;;;5.80;99.90;;;;;;4919700;29;20684;-94
2022/01/30 01:49:50;;;;;;;20.87;3.57;;;5.90;99.90;;;;;;4933902;29;20193;-95
2022/01/30 01:54:47;;;;;;;24.07;4.37;;;5.90;99.90;;;;;;4919980;29;20597;-94
2022/01/30 01:57:13;;;;;;;21.10;3.93;;;5.90;99.90;;;;;;4938045;29;20299;-96
2022/01/30 01:59:40;;;;;;;18.40;3.43;;;6.00;99.90;;;;;;4938128;29;20182;-96
2022/01/30 02:04:42;;;;;;;28.23;4.63;;;5.90;99.90;;;;;;5000652;23;20227;-92
2022/01/30 02:09:53;;;;;;;16.97;3.93;;;6.00;99.90;;;;;;4923716;29;20238;-94
2022/01/30 02:12:29;;;;;;;27.10;4.10;;;6.00;99.90;;;;;;4921538;29;20687;-91
2022/01/30 02:25:56;;;;;;;22.60;3.47;;;5.90;99.90;;;;;;4923025;29;20174;-94
2022/01/30 02:28:24;;;;;;;18.00;3.73;;;5.90;99.90;;;;;;4922236;29;20229;-94
2022/01/30 02:31:03;;;;;;;23.83;3.63;;;5.90;99.90;;;;;;4922407;29;20174;-93
2022/01/30 02:33:29;;;;;;;19.67;3.93;;;5.80;99.90;;;;;;4922857;29;20174;-95
2022/01/30 02:35:55;;;;;;;21.93;3.90;;;5.80;99.90;;;;;;4922705;29;20577;-94
2022/01/30 02:38:23;;;;;;;21.23;4.20;;;5.90;99.90;;;;;;4923651;29;20194;-92
2022/01/30 02:40:51;;;;;;;23.73;4.33;;;6.00;99.90;;;;;;4923446;29;20167;-93
2022/01/30 02:43:21;;;;;;;25.80;4.77;;;6.00;99.90;;;;;;4922325;29;20182;-93
2022/01/30 02:46:00;;;;;;;19.07;3.43;;;6.00;99.90;;;;;;4922318;29;20189;-93
2022/01/30 02:48:44;;;;;;;28.20;4.13;;;6.10;99.90;;;;;;4922912;29;20207;-94
2022/01/30 02:51:13;;;;;;;20.50;3.77;;;6.10;99.90;;;;;;4923462;29;20186;-93
2022/01/30 02:53:43;;;;;;;19.50;3.80;;;6.20;99.90;;;;;;4923219;29;20167;-93
2022/01/30 02:56:09;;;;;;;20.23;3.73;;;6.20;99.90;;;;;;4922956;29;20198;-92
2022/01/30 02:58:35;;;;;;;25.80;3.30;;;6.20;99.90;;;;;;4922597;29;20202;-94
2022/01/30 03:01:01;;;;;;;21.20;3.97;;;6.20;99.90;;;;;;4922034;29;20163;-93
2022/01/30 03:03:28;;;;;;;19.87;3.57;;;6.20;99.90;;;;;;4922756;29;20298;-94
2022/01/30 03:05:54;;;;;;;18.63;3.23;;;6.20;99.90;;;;;;4922620;29;20187;-92
2022/01/30 03:08:20;;;;;;;17.77;3.90;;;6.20;99.90;;;;;;4922295;29;20740;-92
2022/01/30 03:10:46;;;;;;;20.63;4.10;;;6.10;99.90;;;;;;4923644;29;20258;-92
2022/01/30 03:13:13;;;;;;;15.90;3.70;;;6.10;99.90;;;;;;4923100;29;20210;-94
2022/01/30 03:15:41;;;;;;;20.73;3.70;;;6.10;99.90;;;;;;4922475;29;20222;-93
2022/01/30 03:18:07;;;;;;;19.60;3.97;;;6.20;99.90;;;;;;4922458;29;20237;-92
2022/01/30 03:20:32;;;;;;;22.13;3.40;;;6.20;99.90;;;;;;4923465;29;20183;-94
2022/01/30 03:23:01;;;;;;;17.63;3.73;;;6.10;99.90;;;;;;4922330;29;20213;-95
2022/01/30 03:25:27;;;;;;;17.97;3.43;;;6.00;99.90;;;;;;4922970;29;20187;-93
2022/01/30 03:27:53;;;;;;;21.77;3.90;;;5.90;99.90;;;;;;4922228;29;20730;-93
2022/01/30 03:30:27;;;;;;;26.07;4.03;;;5.80;99.90;;;;;;4921418;29;20178;-92
2022/01/30 03:32:53;;;;;;;26.83;3.77;;;5.80;99.90;;;;;;4922165;29;20639;-93
2022/01/30 03:35:19;;;;;;;17.50;3.40;;;5.80;99.90;;;;;;4922250;29;20210;-93
2022/01/30 03:37:47;;;;;;;20.20;3.90;;;5.80;99.90;;;;;;4922195;29;20209;-93
2022/01/30 03:40:13;;;;;;;22.20;4.27;;;5.80;99.90;;;;;;4922731;29;20258;-93
2022/01/30 03:42:40;;;;;;;21.33;4.07;;;5.70;99.90;;;;;;4921927;29;20198;-94
2022/01/30 03:45:06;;;;;;;29.67;4.73;;;5.60;99.90;;;;;;4921525;29;20206;-92
2022/01/30 03:47:32;;;;;;;26.80;4.53;;;5.70;99.90;;;;;;4921181;29;20278;-93
2022/01/30 03:49:59;;;;;;;20.00;4.40;;;5.70;99.90;;;;;;4921433;29;20178;-94
2022/01/30 03:52:24;;;;;;;23.17;4.30;;;5.70;99.90;;;;;;4921428;29;20254;-94
2022/01/30 03:54:50;;;;;;;23.80;4.70;;;5.80;99.90;;;;;;4921622;29;20383;-93
2022/01/30 03:57:16;;;;;;;21.83;3.90;;;5.80;99.90;;;;;;4921215;29;20199;-94
2022/01/30 03:59:42;;;;;;;21.43;4.07;;;5.80;99.90;;;;;;4921518;29;20179;-93
2022/01/30 04:02:08;;;;;;;23.93;4.40;;;5.70;99.90;;;;;;4921957;29;20270;-94
2022/01/30 04:04:34;;;;;;;26.83;4.97;;;5.70;99.90;;;;;;4921249;29;20710;-93
2022/01/30 04:07:01;;;;;;;25.70;4.60;;;5.70;99.90;;;;;;4920901;29;20214;-94
2022/01/30 04:09:28;;;;;;;17.97;3.93;;;5.70;99.90;;;;;;4921455;29;20182;-92
2022/01/30 04:11:54;;;;;;;20.73;3.90;;;5.70;99.90;;;;;;4920383;29;20201;-94
2022/01/30 04:14:21;;;;;;;24.00;5.00;;;5.70;99.90;;;;;;4921476;29;20178;-92
2022/01/30 04:16:47;;;;;;;25.00;3.73;;;5.70;99.90;;;;;;4922209;29;20199;-93
2022/01/30 04:19:13;;;;;;;22.13;4.20;;;5.80;99.90;;;;;;4921732;29;20175;-94
2022/01/30 04:21:39;;;;;;;23.87;4.37;;;5.80;99.90;;;;;;4921780;29;20185;-95
2022/01/30 04:24:06;;;;;;;21.03;4.70;;;5.80;99.90;;;;;;4921609;29;20171;-92
2022/01/30 04:26:33;;;;;;;23.20;4.93;;;5.80;99.90;;;;;;4921668;29;20179;-94
2022/01/30 04:28:59;;;;;;;16.50;3.80;;;5.80;99.90;;;;;;4920335;29;20195;-93
2022/01/30 04:31:25;;;;;;;18.57;3.93;;;5.70;99.90;;;;;;4921468;29;20262;-94
2022/01/30 04:33:51;;;;;;;19.83;5.37;;;5.80;99.90;;;;;;4922733;29;20193;-92
2022/01/30 04:36:24;;;;;;;24.93;4.27;;;6.00;99.90;;;;;;4922093;29;20241;-94
2022/01/30 04:39:13;;;;;;;21.40;4.27;;;5.90;99.90;;;;;;4921923;29;20198;-93
2022/01/30 04:55:52;;;;;;;24.33;4.83;;;5.10;99.90;;;;;;4922247;29;20722;-92
2022/01/30 05:00:50;;;;;;;27.77;4.27;;;5.00;99.90;;;;;;4921260;29;20204;-93
2022/01/30 05:04:17;;;;;;;22.43;4.80;;;5.10;99.90;;;;;;4920239;29;20234;-92
2022/01/30 05:06:12;;;;;;;22.50;3.77;;;5.10;99.90;;;;;;4910236;29;20242;-93
2022/01/30 05:08:38;;;;;;;25.37;4.60;;;5.20;99.90;;;;;;4920203;29;20205;-94
2022/01/30 05:11:07;;;;;;;19.80;3.97;;;5.30;99.90;;;;;;4920220;29;20202;-93
2022/01/30 05:13:36;;;;;;;19.87;4.33;;;5.30;99.90;;;;;;4920660;29;20181;-93
2022/01/30 05:16:02;;;;;;;22.80;4.47;;;5.40;99.90;;;;;;4921265;29;20270;-92
2022/01/30 05:18:29;;;;;;;20.03;4.87;;;5.40;99.90;;;;;;4920387;29;20334;-93
2022/01/30 05:20:57;;;;;;;23.23;4.57;;;5.40;99.90;;;;;;4920221;29;20177;-93
2022/01/30 05:23:23;;;;;;;32.73;4.83;;;5.50;99.90;;;;;;4919922;29;20178;-92
2022/01/30 05:25:51;;;;;;;29.70;5.47;;;5.40;99.90;;;;;;4919990;29;20710;-93
2022/01/30 05:28:22;;;;;;;28.47;5.20;;;5.60;99.90;;;;;;4920006;29;20214;-93
2022/01/30 05:30:48;;;;;;;25.80;5.33;;;5.60;99.90;;;;;;4920314;29;20179;-93
2022/01/30 05:33:15;;;;;;;28.30;4.53;;;5.70;99.90;;;;;;4919546;29;20277;-92
2022/01/30 05:35:41;;;;;;;27.60;5.10;;;5.60;99.90;;;;;;4918373;29;20210;-93
2022/01/30 05:38:08;;;;;;;28.70;5.57;;;5.60;99.90;;;;;;4917787;29;20675;-93
2022/01/30 05:40:37;;;;;;;18.07;4.67;;;5.60;99.90;;;;;;4918873;29;20183;-94
2022/01/30 05:43:04;;;;;;;30.00;6.40;;;5.60;99.90;;;;;;4918350;29;20265;-92
2022/01/30 05:45:35;;;;;;;35.70;6.07;;;5.60;99.90;;;;;;4917993;29;20183;-92
2022/01/30 05:48:20;;;;;;;26.07;3.90;;;5.60;99.90;;;;;;4918320;29;20237;-94
2022/01/30 05:50:46;;;;;;;34.03;5.23;;;5.60;99.90;;;;;;4918397;29;20178;-93
2022/01/30 05:53:13;;;;;;;28.07;4.77;;;5.50;99.90;;;;;;4918074;29;20273;-93
2022/01/30 05:55:39;;;;;;;26.67;5.43;;;5.50;99.90;;;;;;4918384;29;20207;-94
2022/01/30 05:58:05;;;;;;;23.87;4.47;;;5.50;99.90;;;;;;4918417;29;20803;-93
2022/01/30 06:00:33;;;;;;;28.33;5.90;;;5.50;99.90;;;;;;4918673;29;20201;-93
2022/01/30 06:02:59;;;;;;;32.97;5.73;;;5.50;99.90;;;;;;4917704;29;20226;-92
2022/01/30 06:05:25;;;;;;;25.87;4.77;;;5.50;99.90;;;;;;4919139;29;20185;-93
2022/01/30 06:07:54;;;;;;;30.10;5.27;;;5.50;99.90;;;;;;4918667;29;20207;-93
2022/01/30 06:10:22;;;;;;;30.73;4.63;;;5.50;99.90;;;;;;4918368;29;20206;-92
2022/01/30 06:12:48;;;;;;;28.93;5.47;;;5.50;99.90;;;;;;4918154;29;20185;-93
2022/01/30 06:15:14;;;;;;;26.80;5.57;;;5.40;99.90;;;;;;4917995;29;20280;-92
2022/01/30 06:17:41;;;;;;;25.53;5.03;;;5.40;99.90;;;;;;4917737;29;20207;-94
2022/01/30 06:20:07;;;;;;;26.20;5.63;;;5.30;99.90;;;;;;4917916;29;20206;-93
2022/01/30 06:22:33;;;;;;;30.27;4.73;;;5.30;99.90;;;;;;4918289;29;20237;-93
2022/01/30 06:24:59;;;;;;;32.20;5.50;;;5.30;99.90;;;;;;4919205;29;20273;-93
2022/01/30 06:27:25;;;;;;;26.67;4.83;;;5.40;99.90;;;;;;4919618;29;20210;-94
2022/01/30 06:29:51;;;;;;;26.50;4.40;;;5.40;99.90;;;;;;4918780;29;20175;-94
2022/01/30 06:32:16;;;;;;;33.67;5.93;;;5.30;99.90;;;;;;4918683;29;20181;-92
2022/01/30 06:34:43;;;;;;;32.47;5.47;;;5.30;99.90;;;;;;4919104;29;20298;-93
2022/01/30 06:37:08;;;;;;;30.90;5.33;;;5.30;99.90;;;;;;4918100;29;20199;-91
2022/01/30 06:39:34;;;;;;;33.93;5.63;;;5.30;99.90;;;;;;4918004;29;20186;-93
2022/01/30 06:42:00;;;;;;;25.37;4.67;;;5.30;99.90;;;;;;4919350;29;20635;-93
2022/01/30 06:44:26;;;;;;;26.77;4.97;;;5.30;99.90;;;;;;4921835;29;20687;-92
2022/01/30 06:46:52;;;;;;;28.90;4.97;;;5.30;99.90;;;;;;4921737;29;20198;-91
2022/01/30 06:49:21;;;;;;;29.40;5.30;;;5.40;99.90;;;;;;4922267;29;20174;-92
2022/01/30 06:51:47;;;;;;;29.00;5.10;;;5.40;99.90;;;;;;4921398;29;20806;-91
2022/01/30 06:54:14;;;;;;;21.87;4.67;;;5.30;99.90;;;;;;4921713;29;20225;-92
2022/01/30 06:56:39;;;;;;;33.13;4.97;;;5.30;99.90;;;;;;4921898;29;20175;-90
2022/01/30 06:59:05;;;;;;;30.30;5.27;;;5.30;99.90;;;;;;4920890;29;20199;-94
2022/01/30 07:01:31;;;;;;;36.63;5.50;;;5.20;99.90;;;;;;4921063;29;20171;-94
2022/01/30 07:03:57;;;;;;;30.57;5.57;;;5.30;99.90;;;;;;4921095;29;20270;-91
2022/01/30 07:06:23;;;;;;;27.67;5.97;;;5.30;99.90;;;;;;4921934;29;20175;-93
2022/01/30 07:08:49;;;;;;;24.43;4.50;;;5.30;99.90;;;;;;4920757;29;20207;-93
2022/01/30 07:11:15;;;;;;;36.03;6.47;;;5.30;99.90;;;;;;4920879;29;20584;-94
2022/01/30 07:13:42;;;;;;;29.70;5.50;;;5.30;99.90;;;;;;4922865;29;20270;-93
2022/01/30 07:16:08;;;;;;;30.50;5.83;;;5.40;99.90;;;;;;4922022;29;20290;-93
2022/01/30 07:18:33;;;;;;;33.47;6.27;;;5.40;99.90;;;;;;4922213;29;20248;-92
2022/01/30 07:20:59;;;;;;;25.70;5.80;;;5.40;99.90;;;;;;4921682;29;20643;-92
2022/01/30 07:23:26;;;;;;;26.90;5.43;;;5.30;99.90;;;;;;4922183;29;20226;-93
2022/01/30 07:25:52;;;;;;;28.47;4.83;;;5.30;99.90;;;;;;4922117;29;20254;-91
2022/01/30 07:28:18;;;;;;;29.63;6.33;;;5.30;99.90;;;;;;4922588;29;20202;-90
2022/01/30 07:30:43;;;;;;;31.30;5.40;;;5.40;99.90;;;;;;4921962;29;20592;-94
2022/01/30 07:33:09;;;;;;;27.67;5.00;;;5.40;99.90;;;;;;4921981;29;20209;-91
2022/01/30 07:35:37;;;;;;;34.87;7.53;;;5.40;99.90;;;;;;4921715;29;20313;-93
2022/01/30 07:38:04;;;;;;;30.83;5.37;;;5.40;99.90;;;;;;4921202;29;20217;-94
2022/01/30 07:40:33;;;;;;;33.23;5.47;;;5.40;99.90;;;;;;4920826;29;20607;-92
2022/01/30 07:42:59;;;;;;;33.60;5.73;;;5.40;99.90;;;;;;4921643;29;20195;-94
2022/01/30 07:45:25;;;;;;;34.10;5.90;;;5.50;99.90;;;;;;4920818;29;20174;-93
2022/01/30 07:47:51;;;;;;;35.80;6.33;;;5.50;99.90;;;;;;4921032;29;20678;-92
2022/01/30 07:50:18;;;;;;;29.20;5.67;;;5.50;99.90;;;;;;4921428;29;20743;-92
2022/01/30 07:52:45;;;;;;;25.93;4.90;;;5.50;99.90;;;;;;4920894;29;20174;-92
2022/01/30 07:55:11;;;;;;;28.40;5.77;;;5.60;99.90;;;;;;4920058;29;20698;-93
2022/01/30 07:57:37;;;;;;;27.93;5.13;;;5.60;99.90;;;;;;4920543;29;20297;-93
2022/01/30 08:00:07;;;;;;;27.77;5.67;;;5.60;99.90;;;;;;4921478;29;20643;-93
2022/01/30 08:02:33;;;;;;;26.10;5.83;;;5.60;99.90;;;;;;4920523;29;20179;-92
2022/01/30 08:04:59;;;;;;;31.40;5.50;;;5.70;99.90;;;;;;4921661;29;20229;-93
2022/01/30 08:07:26;;;;;;;26.03;5.17;;;5.70;99.90;;;;;;4921803;29;20203;-92
2022/01/30 08:09:52;;;;;;;31.20;5.03;;;5.70;99.90;;;;;;4921686;29;20277;-94
2022/01/30 08:12:19;;;;;;;27.00;5.67;;;5.70;99.90;;;;;;4921278;29;20213;-92
2022/01/30 08:14:45;;;;;;;30.10;5.90;;;5.70;99.90;;;;;;4920930;29;20210;-93
2022/01/30 08:17:18;;;;;;;23.80;5.40;;;5.70;99.90;;;;;;4920727;29;20233;-93
2022/01/30 08:19:45;;;;;;;30.50;5.47;;;5.80;99.90;;;;;;4920271;29;20190;-93
2022/01/30 08:22:11;;;;;;;25.50;5.97;;;5.80;99.90;;;;;;4920516;29;20182;-93
2022/01/30 08:24:38;;;;;;;25.77;5.30;;;5.80;99.90;;;;;;4919541;29;20245;-92
2022/01/30 08:27:05;;;;;;;28.70;4.83;;;5.90;99.90;;;;;;4920760;29;20186;-93
2022/01/30 08:29:31;;;;;;;30.70;5.33;;;5.80;99.90;;;;;;4920012;29;20639;-93
2022/01/30 08:31:58;;;;;;;20.27;4.60;;;5.90;99.90;;;;;;4920588;29;20170;-93
2022/01/30 08:34:26;;;;;;;21.43;4.83;;;5.90;99.90;;;;;;4919239;29;20178;-92
2022/01/30 08:36:52;;;;;;;33.07;5.27;;;6.00;99.90;;;;;;4920093;29;20290;-94
2022/01/30 08:39:18;;;;;;;16.60;3.90;;;5.90;99.90;;;;;;4920004;29;20190;-91
2022/01/30 08:41:46;;;;;;;27.97;4.70;;;5.90;99.90;;;;;;4920200;29;20254;-92
2022/01/30 08:44:12;;;;;;;30.63;4.57;;;5.90;99.90;;;;;;4919642;29;20666;-94
2022/01/30 08:46:38;;;;;;;23.43;4.40;;;6.00;99.90;;;;;;4919296;29;20214;-93
2022/01/30 08:49:03;;;;;;;21.23;4.10;;;6.00;99.90;;;;;;4919388;29;20211;-92
2022/01/30 08:51:29;;;;;;;27.60;5.47;;;6.00;99.90;;;;;;4919913;29;20214;-93
2022/01/30 08:53:57;;;;;;;27.00;5.40;;;6.00;99.90;;;;;;4919900;29;20270;-92
2022/01/30 08:56:23;;;;;;;26.30;4.93;;;6.00;99.90;;;;;;4920951;29;20206;-92
2022/01/30 08:58:49;;;;;;;25.33;5.57;;;6.00;99.90;;;;;;4920596;29;20206;-91
2022/01/30 09:01:15;;;;;;;23.17;4.67;;;6.00;99.90;;;;;;4920562;29;20198;-93
2022/01/30 09:03:43;;;;;;;25.87;4.90;;;6.00;99.90;;;;;;4921337;29;20254;-92
2022/01/30 09:06:09;;;;;;;28.00;5.30;;;6.00;99.90;;;;;;4921251;29;20183;-92
2022/01/30 09:08:35;;;;;;;23.07;4.60;;;6.00;99.90;;;;;;4919943;29;20198;-93
2022/01/30 09:11:01;;;;;;;26.63;4.33;;;6.00;99.90;;;;;;4919520;29;20246;-93
2022/01/30 09:13:27;;;;;;;28.53;4.93;;;6.10;99.90;;;;;;4919957;29;20242;-92
2022/01/30 09:15:58;;;;;;;25.30;5.37;;;6.10;99.90;;;;;;4920578;29;20202;-94
2022/01/30 09:18:25;;;;;;;23.83;4.93;;;6.10;99.90;;;;;;4919348;29;20195;-92
2022/01/30 09:20:52;;;;;;;20.97;3.90;;;6.10;99.90;;;;;;4919163;29;20218;-92
2022/01/30 09:23:18;;;;;;;24.70;4.83;;;6.10;99.90;;;;;;4920138;29;20171;-93
2022/01/30 09:25:46;;;;;;;20.30;4.93;;;6.10;99.90;;;;;;4920881;29;20243;-95
2022/01/30 09:28:15;;;;;;;22.93;4.97;;;6.10;99.90;;;;;;4920225;29;20207;-94
2022/01/30 09:30:42;;;;;;;24.07;5.03;;;6.20;99.90;;;;;;4920266;29;20221;-94
2022/01/30 09:33:09;;;;;;;23.37;4.03;;;6.20;99.90;;;;;;4920372;29;20178;-94
2022/01/30 09:35:35;;;;;;;25.23;4.57;;;6.20;99.90;;;;;;4920306;29;20209;-91
2022/01/30 09:38:01;;;;;;;15.87;3.97;;;6.20;99.90;;;;;;4918946;29;20682;-92
2022/01/30 09:40:27;;;;;;;32.00;5.33;;;6.20;99.90;;;;;;4919226;29;20730;-93
2022/01/30 09:42:53;;;;;;;28.83;5.33;;;6.20;99.90;;;;;;4921256;29;20201;-93
2022/01/30 09:45:20;;;;;;;27.63;5.60;;;6.20;99.90;;;;;;4920392;29;20178;-93
2022/01/30 09:47:47;;;;;;;31.27;6.77;;;6.20;99.90;;;;;;4920495;29;20208;-92
2022/01/30 09:50:16;;;;;;;33.53;6.03;;;6.30;99.90;;;;;;4919623;29;20207;-93
2022/01/30 09:52:42;;;;;;;29.10;4.30;;;6.30;99.90;;;;;;4919359;29;20194;-94
2022/01/30 09:55:11;;;;;;;25.33;5.17;;;6.30;99.90;;;;;;4919449;29;20202;-94
2022/01/30 09:57:40;;;;;;;37.43;6.73;;;6.30;99.90;;;;;;4920454;29;20240;-93
2022/01/30 10:00:07;;;;;;;24.90;5.30;;;6.30;99.90;;;;;;4919356;29;20202;-93
2022/01/30 10:02:34;;;;;;;29.70;6.87;;;6.30;99.90;;;;;;4919708;29;20182;-93
2022/01/30 10:04:59;;;;;;;20.83;5.17;;;6.40;99.90;;;;;;4919136;29;20277;-93
2022/01/30 10:07:45;;;;;;;36.63;7.37;;;6.40;99.90;;;;;;4919102;29;20290;-94
2022/01/30 10:10:17;;;;;;;24.87;4.87;;;6.30;99.90;;;;;;4920160;29;20179;-92
2022/01/30 10:13:18;;;;;;;26.37;5.50;;;6.40;99.90;;;;;;4921964;29;20182;-93
2022/01/30 10:15:51;;;;;;;21.10;4.57;;;6.50;99.90;;;;;;4868333;29;20207;-94
2022/01/30 10:18:20;;;;;;;26.70;6.33;;;6.50;99.90;;;;;;4916253;29;20206;-94
2022/01/30 10:20:49;;;;;;;31.60;6.60;;;6.50;99.90;;;;;;4926609;29;20171;-94
2022/01/30 10:23:16;;;;;;;27.47;6.20;;;6.50;99.90;;;;;;4927029;29;20171;-94
2022/01/30 10:25:53;;;;;;;33.03;5.83;;;6.50;99.90;;;;;;4926540;29;20179;-95
2022/01/30 10:28:28;;;;;;;34.53;5.97;;;6.50;99.90;;;;;;4925300;29;20225;-94
2022/01/30 10:31:06;;;;;;;35.33;6.20;;;6.60;99.90;;;;;;4924473;29;20654;-91
2022/01/30 10:33:47;;;;;;;29.63;6.40;;;6.60;99.90;;;;;;4923902;29;20264;-93
2022/01/30 10:36:30;;;;;;;28.50;5.57;;;6.60;99.90;;;;;;4923172;29;20212;-93
2022/01/30 10:39:12;;;;;;;29.17;6.30;;;6.50;99.90;;;;;;4923465;29;20559;-93
2022/01/30 10:41:48;;;;;;;28.13;6.23;;;6.50;99.90;;;;;;4922423;29;20178;-92
2022/01/30 10:44:14;;;;;;;40.70;8.07;;;6.60;99.90;;;;;;4922975;29;20174;-93
2022/01/30 10:46:43;;;;;;;38.80;6.77;;;6.60;99.90;;;;;;4922536;29;20178;-93
2022/01/30 10:49:18;;;;;;;29.67;6.43;;;6.60;99.90;;;;;;4923370;29;20205;-95
2022/01/30 10:51:59;;;;;;;42.50;5.90;;;6.60;99.90;;;;;;4925588;29;20178;-94
2022/01/30 10:54:29;;;;;;;30.60;6.10;;;6.60;99.90;;;;;;4924686;29;20242;-93
2022/01/30 10:57:12;;;;;;;37.77;6.40;;;6.70;99.90;;;;;;4925494;29;20182;-92
2022/01/30 10:59:43;;;;;;;31.90;5.93;;;6.70;99.90;;;;;;4925124;29;20285;-94
2022/01/30 11:02:24;;;;;;;39.87;7.50;;;6.70;99.90;;;;;;4924388;29;20179;-92
2022/01/30 11:05:00;;;;;;;33.53;6.73;;;6.60;99.90;;;;;;4924481;29;20254;-94
2022/01/30 11:07:29;;;;;;;31.60;7.10;;;6.70;99.90;;;;;;4923834;29;20202;-92
2022/01/30 11:10:06;;;;;;;31.73;5.40;;;6.60;99.90;;;;;;4925281;29;20223;-93
2022/01/30 11:13:31;;;;;;;33.73;6.13;;;6.60;99.90;;;;;;4925922;29;20281;-92
2022/01/30 11:15:34;;;;;;;31.47;6.50;;;6.70;99.90;;;;;;4916022;29;20206;-94
2022/01/30 11:18:05;;;;;;;36.47;6.07;;;6.80;99.90;;;;;;4926273;29;20274;-94
2022/01/30 11:20:34;;;;;;;30.83;6.60;;;6.80;99.90;;;;;;4925811;29;20194;-93
2022/01/30 11:23:04;;;;;;;24.70;5.57;;;6.80;99.90;;;;;;4924837;29;20206;-93
2022/01/30 11:25:35;;;;;;;37.47;5.70;;;6.90;99.90;;;;;;4925455;29;20175;-94
2022/01/30 11:28:04;;;;;;;28.73;5.93;;;6.90;99.90;;;;;;4926384;29;20270;-94
2022/01/30 11:30:32;;;;;;;34.93;7.20;;;6.80;99.90;;;;;;4925970;29;20175;-94
2022/01/30 11:33:01;;;;;;;33.33;6.93;;;6.80;99.90;;;;;;4925507;29;20183;-94
2022/01/30 11:35:28;;;;;;;30.13;6.80;;;6.80;99.90;;;;;;4925210;29;20206;-94
2022/01/30 11:37:56;;;;;;;32.27;7.13;;;6.80;99.90;;;;;;4925742;29;20203;-94
2022/01/30 11:40:24;;;;;;;37.93;6.70;;;6.80;99.90;;;;;;4925288;29;20174;-93
2022/01/30 11:42:52;;;;;;;39.93;6.70;;;6.80;99.90;;;;;;4924751;29;20177;-94
2022/01/30 11:45:27;;;;;;;33.17;6.03;;;6.80;99.90;;;;;;4925604;29;20193;-93
2022/01/30 11:47:59;;;;;;;34.60;6.37;;;6.70;99.90;;;;;;4925196;29;20202;-94
2022/01/30 11:50:31;;;;;;;29.90;6.10;;;6.80;99.90;;;;;;4926776;29;20178;-93
2022/01/30 11:53:09;;;;;;;32.97;5.50;;;6.80;99.90;;;;;;4925795;29;20214;-94
2022/01/30 11:55:49;;;;;;;24.87;5.20;;;6.80;99.90;;;;;;4925086;29;20202;-93
2022/01/30 11:58:33;;;;;;;35.07;6.23;;;6.80;99.90;;;;;;4922068;29;20286;-92
2022/01/30 12:01:13;;;;;;;30.23;5.87;;;6.80;99.90;;;;;;4923281;29;20651;-93
2022/01/30 12:04:01;;;;;;;32.93;6.13;;;6.90;99.90;;;;;;4923700;29;20221;-94
2022/01/30 12:06:32;;;;;;;24.57;5.67;;;6.90;99.90;;;;;;4924265;29;20179;-92
2022/01/30 12:09:03;;;;;;;34.37;6.43;;;6.90;99.90;;;;;;4923377;29;20209;-94
2022/01/30 12:11:39;;;;;;;26.67;5.63;;;6.90;99.90;;;;;;4922004;29;20207;-93
2022/01/30 12:14:11;;;;;;;32.20;6.43;;;7.00;99.90;;;;;;4924183;29;20174;-93
2022/01/30 12:16:44;;;;;;;32.07;6.00;;;7.00;99.90;;;;;;4924324;29;20237;-93
2022/01/30 12:19:13;;;;;;;38.17;6.90;;;6.90;99.90;;;;;;4923139;29;20209;-93
2022/01/30 12:21:40;;;;;;;27.07;5.40;;;6.90;99.90;;;;;;4921992;29;20182;-92
2022/01/30 12:24:26;;;;;;;32.03;6.20;;;6.80;99.90;;;;;;4922579;29;20627;-93
2022/01/30 12:27:02;;;;;;;41.60;6.23;;;6.80;99.90;;;;;;4922148;29;20181;-94
2022/01/30 12:29:44;;;;;;;38.83;7.33;;;6.70;99.90;;;;;;4921672;29;20234;-93
2022/01/30 12:32:25;;;;;;;32.70;5.87;;;6.70;99.90;;;;;;4923210;29;20170;-93
2022/01/30 12:35:00;;;;;;;36.17;6.37;;;6.70;99.90;;;;;;4922977;29;20206;-94
2022/01/30 12:37:32;;;;;;;31.33;7.73;;;6.70;99.90;;;;;;4923343;29;20233;-94
2022/01/30 12:40:01;;;;;;;24.77;5.93;;;6.70;99.90;;;;;;4922985;29;20206;-92
2022/01/30 12:42:33;;;;;;;32.40;6.37;;;6.80;99.90;;;;;;4923341;29;20262;-93
2022/01/30 12:45:00;;;;;;;31.13;5.73;;;6.80;99.90;;;;;;4922587;29;20538;-94
2022/01/30 12:47:26;;;;;;;31.53;6.10;;;6.80;99.90;;;;;;4922048;29;20206;-92
2022/01/30 12:49:56;;;;;;;28.87;5.90;;;6.80;99.90;;;;;;4922611;29;20262;-92
2022/01/30 12:55:02;;;;;;;35.60;6.03;;;6.70;99.90;;;;;;4924069;29;20258;-94
2022/01/30 12:57:30;;;;;;;30.97;6.47;;;6.70;99.90;;;;;;4922271;29;20209;-92
2022/01/30 12:59:58;;;;;;;32.37;5.90;;;6.60;99.90;;;;;;4922910;29;20171;-93
2022/01/30 13:02:28;;;;;;;31.93;6.03;;;6.70;99.90;;;;;;4922493;29;20167;-94
2022/01/30 13:05:06;;;;;;;42.43;7.43;;;6.70;99.90;;;;;;4922582;29;20309;-94
2022/01/30 13:07:33;;;;;;;28.73;5.50;;;6.70;99.90;;;;;;4922654;29;20202;-93
2022/01/30 13:10:17;;;;;;;31.50;6.87;;;6.70;99.90;;;;;;4922825;29;20170;-93
2022/01/30 13:12:45;;;;;;;25.00;5.83;;;6.70;99.90;;;;;;4921783;29;20186;-93
2022/01/30 13:15:19;;;;;;;30.27;5.47;;;6.70;99.90;;;;;;4921142;29;20250;-94
2022/01/30 13:17:46;;;;;;;31.47;6.23;;;6.70;99.90;;;;;;4920927;29;20234;-93
2022/01/30 13:20:13;;;;;;;32.53;5.77;;;6.70;99.90;;;;;;4921313;29;20167;-92
2022/01/30 13:22:43;;;;;;;27.73;6.07;;;6.70;99.90;;;;;;4920901;29;20258;-94
2022/01/30 13:25:19;;;;;;;25.70;5.57;;;6.70;99.90;;;;;;4922609;29;20205;-92
2022/01/30 13:27:47;;;;;;;27.70;6.47;;;6.70;99.90;;;;;;4921083;29;20210;-91
2022/01/30 13:30:30;;;;;;;27.03;6.50;;;6.70;99.90;;;;;;4922125;29;20639;-93
2022/01/30 13:32:56;;;;;;;31.90;5.83;;;6.70;99.90;;;;;;4920056;29;20178;-94
2022/01/30 13:35:29;;;;;;;23.40;5.40;;;6.70;99.90;;;;;;4921331;29;20203;-94
2022/01/30 13:38:00;;;;;;;32.77;6.40;;;6.70;99.90;;;;;;4919588;29;20203;-92
2022/01/30 13:40:53;;;;;;;34.23;5.57;;;6.70;99.90;;;;;;4918860;29;20167;-92
2022/01/30 13:43:24;;;;;;;31.10;5.60;;;6.70;99.90;;;;;;4922294;29;20177;-93
2022/01/30 13:48:21;;;;;;;30.67;5.57;;;6.60;99.90;;;;;;4922460;29;20247;-94
2022/01/30 13:50:55;;;;;;;31.13;5.17;;;6.60;99.90;;;;;;4920580;29;20174;-94
2022/01/30 13:53:24;;;;;;;23.93;4.57;;;6.60;99.90;;;;;;4924713;29;20229;-94
2022/01/30 13:56:15;;;;;;;25.03;5.40;;;6.60;99.90;;;;;;4925487;29;20206;-94